Time;durP1;ratioP1;P1;durP2;ratioP2;P2;SDS_P1;SDS_P2;PMS_P1;PMS_P2;Temp;Humidity;BMP_temperature;BMP_pressure;BME280_temperature;BME280_humidity;BME280_pressure;Samples;Min_cycle;Max_cycle;Signal;HPM_P1;HPM_P2
2022/07/21 00:00:42;;;;;;;5.30;3.47;;;17.50;99.90;18.40;97183.00;;;;5115839;27;20198;-71
2022/07/21 00:03:32;;;;;;;3.57;2.63;;;17.40;99.90;18.90;97185.00;;;;5128691;27;20213;-71
2022/07/21 00:06:21;;;;;;;4.30;3.87;;;17.40;99.90;19.00;97176.00;;;;5114061;27;20228;-71
2022/07/21 00:09:11;;;;;;;3.57;3.27;;;17.50;99.90;18.50;97166.00;;;;5112967;27;20198;-71
2022/07/21 00:12:01;;;;;;;3.77;3.47;;;17.50;99.90;18.30;97176.00;;;;5113492;27;20198;-71
2022/07/21 00:14:50;;;;;;;3.40;3.17;;;17.40;99.90;18.30;97169.00;;;;5113577;27;20595;-71
2022/07/21 00:17:39;;;;;;;3.07;2.83;;;17.30;99.90;18.20;97174.00;;;;5111284;27;20211;-72
2022/07/21 00:20:30;;;;;;;3.37;3.07;;;17.20;99.90;17.80;97166.00;;;;5117816;27;20697;-72
2022/07/21 00:23:18;;;;;;;4.33;2.90;;;17.00;99.90;17.40;97171.00;;;;5124403;27;20198;-70
2022/07/21 00:26:07;;;;;;;3.93;3.60;;;16.90;99.90;17.60;97175.00;;;;5121626;27;20191;-71
2022/07/21 00:28:56;;;;;;;4.33;3.83;;;16.70;99.90;17.70;97172.00;;;;5127284;27;20220;-70
2022/07/21 00:31:45;;;;;;;4.17;3.77;;;16.70;99.90;17.60;97179.00;;;;5115372;27;20221;-68
2022/07/21 00:34:34;;;;;;;3.83;3.50;;;16.60;99.90;17.90;97173.00;;;;5113826;27;20217;-71
2022/07/21 00:37:24;;;;;;;5.00;3.60;;;16.60;99.90;18.20;97180.00;;;;5112742;27;20221;-71
2022/07/21 00:40:15;;;;;;;4.37;3.40;;;16.70;99.90;18.20;97174.00;;;;5111852;27;20194;-70
2022/07/21 00:43:04;;;;;;;5.63;3.30;;;16.70;99.90;18.00;97171.00;;;;5110725;27;20194;-72
2022/07/21 00:45:54;;;;;;;4.93;3.60;;;16.70;99.90;17.70;97164.00;;;;5110527;28;20213;-73
2022/07/21 00:48:43;;;;;;;5.77;3.77;;;16.70;99.90;17.90;97164.00;;;;5111052;27;20226;-73
2022/07/21 00:51:31;;;;;;;3.77;3.40;;;16.70;99.90;18.30;97161.00;;;;5113967;27;20217;-73
2022/07/21 00:54:21;;;;;;;3.83;3.43;;;16.70;99.90;18.30;97165.00;;;;5124393;27;20941;-73
2022/07/21 00:57:12;;;;;;;7.40;3.40;;;16.70;99.90;17.80;97153.00;;;;5112643;27;20709;-72
2022/07/21 01:00:01;;;;;;;4.43;3.13;;;17.00;99.90;17.20;97149.00;;;;5118269;27;20190;-69
2022/07/21 01:02:50;;;;;;;6.77;3.37;;;16.60;99.90;17.70;97150.00;;;;5120949;27;20202;-73
2022/07/21 01:05:38;;;;;;;4.37;4.07;;;16.50;99.90;17.60;97168.00;;;;5110248;27;20198;-73
2022/07/21 01:08:28;;;;;;;8.20;3.97;;;16.40;99.90;17.40;97166.00;;;;5120510;27;20225;-70
2022/07/21 01:11:20;;;;;;;6.87;3.73;;;16.40;99.90;17.30;97155.00;;;;5113060;27;20202;-72
2022/07/21 01:14:09;;;;;;;3.90;3.50;;;16.30;99.90;17.50;97158.00;;;;5113853;27;20226;-72
2022/07/21 01:16:58;;;;;;;3.43;3.13;;;16.30;99.90;17.50;97164.00;;;;5112248;27;20229;-73
2022/07/21 01:19:46;;;;;;;3.83;3.40;;;16.20;99.90;17.80;97157.00;;;;5116926;27;20195;-72
2022/07/21 01:22:40;;;;;;;5.37;3.80;;;16.30;99.90;17.60;97152.00;;;;5117638;27;20687;-72
2022/07/21 01:25:28;;;;;;;3.90;3.57;;;16.30;99.90;17.30;97152.00;;;;5122971;27;20198;-73
2022/07/21 01:28:17;;;;;;;4.60;3.10;;;16.30;99.90;17.00;97144.00;;;;5114747;27;20245;-72
2022/07/21 01:31:06;;;;;;;3.40;3.00;;;16.20;99.90;17.00;97148.00;;;;5111172;27;20623;-72
2022/07/21 01:33:55;;;;;;;5.10;3.57;;;16.10;99.90;17.10;97147.00;;;;5109778;27;20226;-72
2022/07/21 01:36:43;;;;;;;5.30;3.57;;;16.00;99.90;17.40;97144.00;;;;5111496;27;20234;-72
2022/07/21 01:42:39;;;;;;;3.97;3.57;;;16.00;99.90;16.70;97153.00;;;;5113984;27;20272;-70
2022/07/21 01:45:29;;;;;;;2.80;2.50;;;15.90;99.90;16.50;97152.00;;;;5111697;27;20198;-72
2022/07/21 01:48:18;;;;;;;4.33;3.43;;;15.80;99.90;17.00;97153.00;;;;5114534;27;20218;-73
2022/07/21 01:51:06;;;;;;;5.70;3.80;;;15.80;99.90;17.40;97150.00;;;;5114472;27;20206;-71
2022/07/21 01:53:56;;;;;;;4.63;3.50;;;15.80;99.90;17.70;97159.00;;;;5112450;27;20226;-71
2022/07/21 01:56:46;;;;;;;3.73;3.30;;;15.90;99.90;17.80;97145.00;;;;5110521;27;20214;-69
2022/07/21 01:59:35;;;;;;;3.80;3.30;;;16.00;99.90;17.60;97147.00;;;;5110040;27;20206;-72
2022/07/21 02:02:23;;;;;;;4.10;3.70;;;16.10;99.90;17.40;97139.00;;;;5119509;27;20193;-72
2022/07/21 02:05:12;;;;;;;3.70;3.40;;;16.10;99.90;17.30;97137.00;;;;5118943;27;20199;-72
2022/07/21 02:08:01;;;;;;;4.80;3.60;;;16.10;99.90;17.10;97130.00;;;;5118949;27;20219;-73
2022/07/21 02:10:49;;;;;;;3.67;3.17;;;16.00;99.90;16.90;97128.00;;;;5110808;27;20198;-71
2022/07/21 02:13:40;;;;;;;4.20;3.80;;;15.90;99.90;17.10;97130.00;;;;5119193;27;20584;-72
2022/07/21 02:16:29;;;;;;;5.63;4.00;;;15.90;99.90;16.90;97137.00;;;;5121486;27;20190;-71
2022/07/21 02:19:17;;;;;;;6.00;3.43;;;15.90;99.90;16.10;97136.00;;;;5119474;27;20849;-66
2022/07/21 02:22:06;;;;;;;4.87;3.47;;;15.70;99.90;16.20;97127.00;;;;5122876;27;20199;-67
2022/07/21 02:24:55;;;;;;;5.67;4.40;;;15.60;99.90;16.70;97129.00;;;;5123353;27;20206;-68
2022/07/21 02:27:45;;;;;;;6.37;3.90;;;15.50;99.90;17.00;97129.00;;;;5118664;27;20715;-70
2022/07/21 02:30:35;;;;;;;5.63;3.87;;;15.60;99.90;17.20;97132.00;;;;5120646;27;20202;-71
2022/07/21 02:33:24;;;;;;;5.10;3.63;;;15.70;99.90;17.10;97134.00;;;;5121096;27;20206;-71
2022/07/21 02:36:12;;;;;;;3.90;3.60;;;15.80;99.90;17.00;97133.00;;;;5112698;27;20345;-72
2022/07/21 02:39:01;;;;;;;3.80;3.50;;;15.80;99.90;17.10;97136.00;;;;5109980;28;20195;-72
2022/07/21 02:41:50;;;;;;;4.60;3.60;;;15.80;99.90;16.70;97126.00;;;;5110762;27;20702;-71
2022/07/21 02:44:39;;;;;;;4.87;4.37;;;15.70;99.90;16.70;97134.00;;;;5109749;28;20214;-71
2022/07/21 02:47:29;;;;;;;3.87;3.53;;;15.70;99.90;16.60;97133.00;;;;5119240;27;20713;-72
2022/07/21 02:50:19;;;;;;;4.17;3.67;;;15.60;99.90;16.40;97128.00;;;;5119415;27;20210;-71
2022/07/21 02:53:10;;;;;;;7.57;3.83;;;15.50;99.90;16.10;97123.00;;;;5108634;27;20203;-72
2022/07/21 02:55:59;;;;;;;3.97;3.50;;;15.40;99.90;15.90;97128.00;;;;5109094;28;20226;-71
2022/07/21 02:58:48;;;;;;;4.37;3.97;;;15.30;99.90;16.10;97134.00;;;;5110408;28;20202;-71
2022/07/21 03:01:37;;;;;;;4.53;3.90;;;15.20;99.90;16.30;97136.00;;;;5109375;28;20212;-71
2022/07/21 03:04:27;;;;;;;4.47;4.07;;;15.20;99.90;16.80;97136.00;;;;5109198;28;20202;-71
2022/07/21 03:07:15;;;;;;;5.70;4.53;;;15.20;99.90;16.20;97140.00;;;;5109456;28;20704;-71
2022/07/21 03:10:05;;;;;;;4.63;4.17;;;15.30;99.90;16.40;97127.00;;;;5110767;28;20202;-72
2022/07/21 03:12:54;;;;;;;6.20;4.07;;;15.30;99.90;16.70;97145.00;;;;5114892;28;20206;-72
2022/07/21 03:15:43;;;;;;;6.27;3.50;;;15.30;99.90;16.90;97147.00;;;;5110721;28;20233;-72
2022/07/21 03:18:32;;;;;;;5.57;4.43;;;15.40;99.90;17.10;97140.00;;;;5111978;27;20225;-72
2022/07/21 03:21:22;;;;;;;5.20;4.03;;;15.40;99.90;17.00;97145.00;;;;5117889;27;20197;-72
2022/07/21 03:24:10;;;;;;;4.67;4.23;;;15.50;99.90;16.70;97143.00;;;;5120562;27;20187;-71
2022/07/21 03:26:59;;;;;;;4.33;3.77;;;15.50;99.90;16.10;97135.00;;;;5125125;27;20222;-71
2022/07/21 03:29:51;;;;;;;6.87;3.70;;;15.40;99.90;15.80;97136.00;;;;5117094;27;20243;-71
2022/07/21 03:32:40;;;;;;;5.57;3.73;;;15.30;99.90;15.90;97132.00;;;;5131509;27;20198;-70
2022/07/21 03:35:29;;;;;;;9.07;4.60;;;15.20;99.90;15.80;97131.00;;;;5130953;27;20223;-71
2022/07/21 03:38:19;;;;;;;7.70;4.43;;;15.10;99.90;15.90;97133.00;;;;5122488;27;20222;-71
2022/07/21 03:41:08;;;;;;;8.63;5.03;;;15.00;99.90;15.80;97138.00;;;;5114497;27;20207;-74
2022/07/21 03:44:00;;;;;;;8.43;4.60;;;14.90;99.90;15.50;97142.00;;;;5123398;27;20665;-72
2022/07/21 03:46:49;;;;;;;7.17;3.90;;;14.80;99.90;15.90;97140.00;;;;5115501;27;20565;-70
2022/07/21 03:49:38;;;;;;;6.77;3.80;;;14.80;99.90;16.20;97151.00;;;;5112386;27;20213;-70
2022/07/21 03:52:26;;;;;;;5.33;4.47;;;14.90;99.90;16.70;97150.00;;;;5117129;27;20209;-72
2022/07/21 03:55:18;;;;;;;4.27;3.87;;;15.00;99.90;16.70;97147.00;;;;5128863;27;20209;-71
2022/07/21 03:58:07;;;;;;;3.90;3.60;;;15.20;99.90;16.90;97149.00;;;;5116971;27;20221;-71
2022/07/21 04:00:56;;;;;;;4.60;4.20;;;15.30;99.90;17.00;97144.00;;;;5114205;27;20198;-71
2022/07/21 04:03:45;;;;;;;4.97;4.50;;;15.50;99.90;17.10;97157.00;;;;5111668;28;20195;-71
2022/07/21 04:06:33;;;;;;;9.73;4.60;;;15.60;99.90;16.50;97154.00;;;;5118983;27;20915;-71
2022/07/21 04:09:22;;;;;;;4.33;3.93;;;15.50;99.90;16.30;97152.00;;;;5126096;27;20193;-71
2022/07/21 04:12:13;;;;;;;15.97;4.73;;;15.40;99.90;16.10;97152.00;;;;5125471;27;20691;-71
2022/07/21 04:15:02;;;;;;;5.60;4.30;;;15.30;99.90;16.20;97142.00;;;;5110621;28;20233;-70
2022/07/21 04:17:51;;;;;;;4.60;4.03;;;15.20;99.90;16.00;97149.00;;;;5118071;27;20572;-71
2022/07/21 04:20:40;;;;;;;5.00;3.70;;;15.20;99.90;15.90;97159.00;;;;5113276;27;20205;-71
2022/07/21 04:23:29;;;;;;;7.83;4.40;;;15.10;99.90;16.00;97154.00;;;;5123977;27;20198;-72
2022/07/21 04:26:17;;;;;;;7.77;5.27;;;15.10;99.90;16.40;97161.00;;;;5122544;27;20206;-72
2022/07/21 04:29:08;;;;;;;6.53;4.47;;;15.10;99.90;16.60;97161.00;;;;5117130;27;20209;-70
2022/07/21 04:31:57;;;;;;;5.73;4.37;;;15.20;99.90;16.70;97159.00;;;;5116967;27;20199;-71
2022/07/21 04:34:45;;;;;;;6.07;4.03;;;15.30;99.90;16.80;97153.00;;;;5110982;28;20677;-71
2022/07/21 04:37:35;;;;;;;5.17;4.33;;;15.50;99.90;17.10;97152.00;;;;5110002;28;20595;-71
2022/07/21 04:40:24;;;;;;;4.33;3.93;;;15.60;99.90;17.10;97158.00;;;;5110617;27;20272;-74
2022/07/21 04:43:12;;;;;;;5.50;4.87;;;15.80;99.90;17.10;97160.00;;;;5109319;28;20199;-71
2022/07/21 04:46:02;;;;;;;7.00;4.77;;;15.90;99.90;17.30;97165.00;;;;5110642;28;20206;-70
2022/07/21 04:48:51;;;;;;;4.93;4.20;;;16.00;99.90;17.30;97162.00;;;;5121679;27;20190;-71
2022/07/21 04:51:40;;;;;;;7.80;5.33;;;16.10;99.90;17.20;97169.00;;;;5114130;27;20213;-72
2022/07/21 04:54:29;;;;;;;8.10;4.63;;;16.20;99.90;17.10;97173.00;;;;5109698;27;20682;-68
2022/07/21 04:57:18;;;;;;;5.47;4.10;;;16.20;99.90;17.30;97171.00;;;;5109140;28;20250;-73
2022/07/21 05:00:10;;;;;;;5.13;4.23;;;16.20;99.90;17.40;97171.00;;;;5119420;27;20220;-70
2022/07/21 05:03:01;;;;;;;4.83;4.33;;;16.20;99.90;17.70;97171.00;;;;5110093;28;20218;-71
2022/07/21 05:05:49;;;;;;;6.00;5.03;;;16.30;99.90;17.60;97164.00;;;;5110476;28;20207;-70
2022/07/21 05:08:38;;;;;;;7.43;4.57;;;16.40;99.90;17.80;97156.00;;;;5109032;28;20756;-70
2022/07/21 05:11:27;;;;;;;4.67;4.10;;;16.50;99.90;18.00;97159.00;;;;5109722;27;20202;-72
2022/07/21 05:14:16;;;;;;;7.13;5.17;;;16.60;99.90;18.20;97161.00;;;;5110532;28;20199;-71
2022/07/21 05:17:05;;;;;;;5.30;4.20;;;16.70;99.90;18.30;97162.00;;;;5130386;27;20252;-70
2022/07/21 05:19:55;;;;;;;5.47;4.70;;;16.90;99.90;18.50;97168.00;;;;5121564;27;20198;-70
2022/07/21 05:22:46;;;;;;;7.97;5.10;;;17.10;99.90;18.60;97169.00;;;;5122710;27;20286;-73
2022/07/21 05:25:37;;;;;;;4.67;3.73;;;17.20;99.90;18.80;97163.00;;;;5115973;27;20581;-70
2022/07/21 05:28:28;;;;;;;5.23;4.73;;;17.40;99.90;18.60;97170.00;;;;5114002;27;20219;-70
2022/07/21 05:31:16;;;;;;;6.43;5.17;;;17.50;99.90;18.90;97168.00;;;;5109708;28;20206;-70
2022/07/21 05:34:05;;;;;;;7.87;4.30;;;17.60;99.90;19.00;97165.00;;;;5108502;28;20209;-69
2022/07/21 05:36:55;;;;;;;4.20;3.80;;;17.70;99.90;19.10;97159.00;;;;5117538;27;20700;-68
2022/07/21 05:39:44;;;;;;;8.50;5.87;;;17.80;99.90;19.50;97162.00;;;;5120725;27;20199;-71
2022/07/21 05:42:33;;;;;;;18.70;11.97;;;18.00;99.90;19.60;97165.00;;;;5119979;27;20212;-72
2022/07/21 05:45:22;;;;;;;12.60;8.40;;;18.20;99.90;20.00;97164.00;;;;5122531;27;20190;-72
2022/07/21 05:48:10;;;;;;;7.73;5.13;;;18.30;99.90;19.80;97162.00;;;;5120713;27;20761;-72
2022/07/21 05:50:59;;;;;;;8.67;4.67;;;18.50;99.90;20.30;97172.00;;;;5122073;27;20198;-71
2022/07/21 05:53:49;;;;;;;5.33;4.77;;;18.70;99.90;20.60;97165.00;;;;5121393;27;20202;-72
2022/07/21 05:56:38;;;;;;;6.03;4.27;;;18.80;99.90;20.70;97164.00;;;;5120279;27;20222;-72
2022/07/21 05:59:26;;;;;;;6.03;4.63;;;19.00;99.90;21.10;97166.00;;;;5116662;27;20206;-71
2022/07/21 06:02:15;;;;;;;7.17;4.63;;;19.20;99.90;21.30;97167.00;;;;5124730;27;20194;-71
2022/07/21 06:05:06;;;;;;;5.23;4.73;;;19.50;99.90;21.60;97162.00;;;;5136270;27;20212;-72
2022/07/21 06:07:55;;;;;;;4.50;4.10;;;19.70;99.90;21.80;97171.00;;;;5118489;27;20210;-71
2022/07/21 06:10:45;;;;;;;9.07;4.27;;;19.90;99.90;22.30;97183.00;;;;5121324;27;20693;-73
2022/07/21 06:13:34;;;;;;;5.20;4.43;;;20.20;99.90;22.20;97177.00;;;;5108979;28;20198;-72
2022/07/21 06:16:23;;;;;;;5.07;4.67;;;20.40;99.90;22.40;97169.00;;;;5108342;28;20218;-71
2022/07/21 06:19:12;;;;;;;5.40;3.93;;;20.60;99.90;22.50;97165.00;;;;5112122;27;20186;-71
2022/07/21 06:22:02;;;;;;;5.70;4.17;;;20.80;99.90;22.90;97160.00;;;;5116603;27;20202;-70
2022/07/21 06:24:50;;;;;;;4.50;3.97;;;21.00;99.90;23.10;97165.00;;;;5120957;27;20198;-70
2022/07/21 06:27:40;;;;;;;7.63;4.27;;;21.20;99.90;23.60;97167.00;;;;5107963;27;20234;-70
2022/07/21 06:30:29;;;;;;;7.17;4.63;;;21.40;99.90;23.80;97160.00;;;;5120420;27;20199;-71
2022/07/21 06:33:18;;;;;;;4.80;4.23;;;21.60;99.90;23.70;97169.00;;;;5116861;27;20206;-72
2022/07/21 06:36:09;;;;;;;6.40;4.60;;;21.80;99.90;24.20;97158.00;;;;5122396;27;20202;-71
2022/07/21 06:38:57;;;;;;;6.60;4.70;;;22.00;99.90;24.00;97153.00;;;;5117732;27;20272;-71
2022/07/21 06:41:46;;;;;;;7.17;4.50;;;22.20;99.90;24.10;97155.00;;;;5109347;27;20202;-71
2022/07/21 06:44:36;;;;;;;4.53;4.10;;;22.40;99.90;24.30;97165.00;;;;5109332;27;20206;-71
2022/07/21 06:47:25;;;;;;;8.60;4.83;;;22.50;99.90;24.10;97160.00;;;;5118797;27;20244;-71
2022/07/21 06:50:14;;;;;;;6.33;4.23;;;22.60;99.90;24.20;97160.00;;;;5117597;27;20213;-71
2022/07/21 06:53:03;;;;;;;6.27;4.20;;;22.70;99.90;24.40;97166.00;;;;5125456;27;20693;-72
2022/07/21 06:55:53;;;;;;;11.67;4.67;;;22.80;99.90;24.80;97160.00;;;;5116218;27;20198;-71
2022/07/21 06:58:45;;;;;;;8.73;4.10;;;22.90;99.90;24.80;97157.00;;;;5114506;27;20229;-70
2022/07/21 07:01:39;;;;;;;8.13;4.63;;;23.00;99.90;25.10;97151.00;;;;5122049;27;20202;-72
2022/07/21 07:04:28;;;;;;;7.07;4.40;;;23.20;99.90;25.30;97157.00;;;;5115965;28;20197;-72
2022/07/21 07:07:16;;;;;;;12.03;5.50;;;23.30;99.90;25.50;97158.00;;;;5112935;28;20303;-71
2022/07/21 07:10:06;;;;;;;7.40;4.30;;;23.50;99.90;25.70;97149.00;;;;5112185;28;20894;-71
2022/07/21 07:12:55;;;;;;;7.83;4.20;;;23.70;99.90;26.10;97151.00;;;;5115685;28;20206;-71
2022/07/21 07:16:05;;;;;;;6.40;4.60;;;23.90;99.90;26.30;97157.00;;;;5107694;28;20283;-71
2022/07/21 07:18:55;;;;;;;5.07;4.53;;;24.00;99.90;26.30;97155.00;;;;5120458;28;20781;-71
2022/07/21 07:21:44;;;;;;;6.90;4.07;;;24.30;99.90;26.60;97149.00;;;;5113213;27;20202;-71
2022/07/21 07:24:33;;;;;;;6.63;3.73;;;24.40;99.90;26.70;97154.00;;;;5114158;27;20209;-71
2022/07/21 07:27:21;;;;;;;9.50;4.40;;;24.60;99.90;26.50;97146.00;;;;5120825;28;20218;-71
2022/07/21 07:30:12;;;;;;;10.70;7.20;;;24.70;99.90;26.90;97146.00;;;;5108855;28;20203;-71
2022/07/21 07:33:01;;;;;;;9.93;4.60;;;24.80;99.90;27.20;97143.00;;;;5109056;28;20198;-71
2022/07/21 07:35:51;;;;;;;4.50;4.03;;;25.00;99.90;27.60;97132.00;;;;5108204;27;20564;-71
2022/07/21 07:38:40;;;;;;;7.20;3.87;;;25.20;99.90;27.70;97144.00;;;;5117080;27;20622;-71
2022/07/21 07:41:31;;;;;;;4.80;3.93;;;25.40;99.90;27.80;97138.00;;;;5118906;27;20201;-71
2022/07/21 07:44:20;;;;;;;5.60;3.80;;;25.60;99.90;27.80;97139.00;;;;5109072;28;20213;-71
2022/07/21 07:47:08;;;;;;;6.03;4.07;;;25.70;99.10;27.80;97132.00;;;;5119298;28;20235;-70
2022/07/21 07:49:58;;;;;;;6.60;4.20;;;25.80;99.70;28.10;97130.00;;;;5113897;28;20203;-70
2022/07/21 07:52:48;;;;;;;8.37;3.83;;;26.00;99.90;28.30;97127.00;;;;5113187;28;20589;-71
2022/07/21 07:55:37;;;;;;;6.43;4.00;;;26.20;99.10;28.30;97132.00;;;;5116712;27;20617;-70
2022/07/21 07:58:26;;;;;;;5.10;4.70;;;26.30;98.30;28.10;97126.00;;;;5116477;27;20237;-71
2022/07/21 08:01:16;;;;;;;6.93;4.00;;;26.40;96.80;28.50;97130.00;;;;5116182;27;20194;-73
2022/07/21 08:04:05;;;;;;;7.90;4.90;;;26.50;98.20;29.10;97114.00;;;;5118424;27;20196;-71
2022/07/21 08:06:54;;;;;;;4.53;3.60;;;26.70;97.60;29.50;97119.00;;;;5116270;27;20609;-71
2022/07/21 08:09:44;;;;;;;6.47;4.13;;;26.90;97.90;29.70;97122.00;;;;5119889;27;20202;-70
2022/07/21 08:12:33;;;;;;;4.23;3.83;;;27.10;96.50;29.90;97125.00;;;;5121273;27;20203;-70
2022/07/21 08:15:21;;;;;;;4.80;3.67;;;27.40;95.80;30.20;97112.00;;;;5118659;27;20667;-69
2022/07/21 08:18:11;;;;;;;6.57;4.07;;;27.60;95.60;30.20;97115.00;;;;5125356;27;20220;-68
2022/07/21 08:20:59;;;;;;;5.37;3.93;;;27.80;94.90;30.50;97118.00;;;;5123986;27;20565;-69
2022/07/21 08:23:48;;;;;;;6.43;4.03;;;28.00;93.80;30.80;97128.00;;;;5115911;27;20200;-70
2022/07/21 08:26:38;;;;;;;6.17;3.77;;;28.30;93.40;31.00;97112.00;;;;5123040;27;20207;-70
2022/07/21 08:29:27;;;;;;;7.83;3.50;;;28.50;92.70;31.20;97105.00;;;;5119599;27;20570;-71
2022/07/21 08:32:17;;;;;;;6.93;3.30;;;28.70;92.10;31.20;97108.00;;;;5118564;27;20215;-71
2022/07/21 08:35:08;;;;;;;7.80;3.67;;;28.90;91.20;31.40;97104.00;;;;5115549;27;20224;-71
2022/07/21 08:37:59;;;;;;;6.07;3.50;;;29.00;90.30;31.30;97115.00;;;;5125199;27;20226;-72
2022/07/21 08:40:48;;;;;;;4.97;3.13;;;29.10;89.40;31.70;97106.00;;;;5115710;27;20192;-72
2022/07/21 08:43:39;;;;;;;7.47;3.00;;;29.20;88.10;32.00;97098.00;;;;5121611;27;20216;-71
2022/07/21 08:46:29;;;;;;;6.83;3.20;;;29.40;87.80;32.20;97110.00;;;;5119141;27;20196;-71
2022/07/21 08:49:22;;;;;;;6.17;3.40;;;29.60;86.30;32.40;97108.00;;;;5128191;27;20200;-71
2022/07/21 08:52:11;;;;;;;5.80;3.60;;;29.80;85.90;32.80;97113.00;;;;5126300;27;20596;-71
2022/07/21 08:55:01;;;;;;;3.03;2.72;;;30.00;84.60;32.90;97111.00;;;;5120009;27;20205;-71
2022/07/21 08:57:50;;;;;;;4.07;3.40;;;30.30;83.40;33.00;97105.00;;;;5110145;28;20230;-71
2022/07/21 09:00:43;;;;;;;3.45;3.10;;;30.50;81.60;33.20;97102.00;;;;5119362;27;20206;-71
2022/07/21 09:03:33;;;;;;;5.78;3.13;;;30.70;81.00;33.50;97100.00;;;;5117561;27;20215;-71
2022/07/21 09:06:22;;;;;;;5.05;3.22;;;30.90;79.30;33.70;97095.00;;;;5121671;27;20204;-72
2022/07/21 09:09:20;;;;;;;3.40;3.10;;;31.10;77.40;34.00;97097.00;;;;5109229;28;20687;-72
2022/07/21 09:12:09;;;;;;;3.55;3.25;;;31.30;76.10;34.10;97091.00;;;;5109455;28;20221;-72
2022/07/21 09:15:13;;;;;;;4.53;3.08;;;31.50;75.30;34.00;97097.00;;;;5110055;28;20609;-71
2022/07/21 09:18:11;;;;;;;3.95;3.00;;;31.60;73.70;33.50;97093.00;;;;5108112;28;20252;-72
2022/07/21 09:21:01;;;;;;;3.30;2.63;;;31.60;67.90;34.00;97092.00;;;;5110161;27;20193;-72
2022/07/21 09:23:50;;;;;;;3.33;2.40;;;31.70;64.40;34.00;97088.00;;;;5121600;27;20310;-72
2022/07/21 09:27:06;;;;;;;9.35;2.78;;;31.80;64.20;34.40;97100.00;;;;5112432;27;20210;-73
2022/07/21 09:29:59;;;;;;;3.05;2.75;;;31.90;64.20;34.10;97089.00;;;;5113489;27;20218;-71
2022/07/21 09:32:47;;;;;;;3.78;2.65;;;32.00;60.10;33.50;97081.00;;;;5110055;28;20194;-72
2022/07/21 09:35:37;;;;;;;3.60;2.63;;;31.90;59.40;34.00;97080.00;;;;5112917;27;20202;-71
2022/07/21 09:38:27;;;;;;;3.13;2.78;;;31.90;62.90;34.30;97087.00;;;;5110795;27;20708;-71
2022/07/21 09:41:18;;;;;;;2.97;2.70;;;32.00;62.10;34.40;97082.00;;;;5109875;28;20216;-71
2022/07/21 09:44:07;;;;;;;4.97;3.67;;;32.10;59.90;35.00;97078.00;;;;5108163;28;20207;-72
2022/07/21 09:47:12;;;;;;;3.85;3.45;;;32.40;63.70;35.10;97076.00;;;;5117389;27;20240;-72
2022/07/21 09:50:02;;;;;;;5.78;4.07;;;32.50;61.80;35.40;97078.00;;;;5119971;27;20242;-72
2022/07/21 09:53:10;;;;;;;6.57;4.68;;;32.80;61.70;35.60;97071.00;;;;5117460;27;20213;-71
2022/07/21 09:55:59;;;;;;;4.38;3.95;;;33.00;60.40;35.00;97078.00;;;;5120661;27;20203;-72
2022/07/21 09:58:50;;;;;;;6.45;4.35;;;33.00;58.80;34.60;97066.00;;;;5115673;27;20393;-72
2022/07/21 10:01:39;;;;;;;3.92;3.63;;;33.00;58.30;34.80;97069.00;;;;5118125;27;20208;-72
2022/07/21 10:04:29;;;;;;;4.10;3.38;;;33.00;59.60;35.80;97072.00;;;;5121337;27;20254;-72
2022/07/21 10:07:32;;;;;;;4.25;3.95;;;33.10;60.40;35.30;97069.00;;;;5116675;27;20216;-71
2022/07/21 10:10:22;;;;;;;6.30;3.80;;;33.20;58.30;36.20;97070.00;;;;5119106;27;20980;-72
2022/07/21 10:13:14;;;;;;;4.07;3.78;;;33.40;58.20;36.00;97066.00;;;;5117339;27;20303;-72
2022/07/21 10:16:05;;;;;;;7.55;4.00;;;33.50;56.90;36.50;97065.00;;;;5117906;27;20276;-71
2022/07/21 10:19:21;;;;;;;3.78;3.47;;;33.80;58.50;36.00;97067.00;;;;5119620;27;20220;-71
2022/07/21 10:22:22;;;;;;;6.45;3.35;;;34.00;57.90;36.00;97065.00;;;;5117903;27;20201;-71
2022/07/21 10:25:11;;;;;;;3.72;3.33;;;34.00;57.70;35.30;97055.00;;;;5118321;27;20197;-73
2022/07/21 10:28:20;;;;;;;7.43;3.53;;;33.90;54.90;36.70;97056.00;;;;5116577;27;20222;-71
2022/07/21 10:31:17;;;;;;;4.25;2.85;;;34.10;55.60;36.00;97054.00;;;;5117018;27;20212;-72
2022/07/21 10:34:05;;;;;;;4.28;2.88;;;34.10;54.60;36.70;97049.00;;;;5120158;27;20557;-71
2022/07/21 10:36:54;;;;;;;6.47;3.53;;;34.10;55.80;36.70;97046.00;;;;5119192;27;20221;-72
2022/07/21 10:39:43;;;;;;;8.10;3.20;;;34.30;55.50;37.30;97054.00;;;;5118033;27;20236;-71
2022/07/21 10:42:31;;;;;;;5.45;2.97;;;34.50;55.40;36.70;97040.00;;;;5115092;27;20229;-71
2022/07/21 10:45:31;;;;;;;6.70;3.30;;;34.60;55.10;37.60;97038.00;;;;5120125;27;20195;-71
2022/07/21 10:48:49;;;;;;;5.03;3.08;;;34.80;55.00;37.10;97038.00;;;;5118727;27;20325;-71
2022/07/21 10:51:39;;;;;;;3.78;3.10;;;35.00;51.60;35.90;97036.00;;;;5119928;27;20202;-69
2022/07/21 10:54:28;;;;;;;3.20;2.80;;;34.90;52.30;36.70;97025.00;;;;5116113;27;20204;-68
2022/07/21 10:57:29;;;;;;;2.83;2.55;;;34.60;51.40;37.00;97033.00;;;;5117880;27;20226;-68
2022/07/21 11:00:27;;;;;;;5.57;3.47;;;34.70;50.70;37.80;97030.00;;;;5122632;27;20209;-67
2022/07/21 11:03:26;;;;;;;5.28;2.60;;;34.90;51.80;37.70;97033.00;;;;5115027;28;20556;-68
2022/07/21 11:06:23;;;;;;;5.90;3.28;;;35.00;52.80;37.70;97031.00;;;;5115419;28;20198;-68
2022/07/21 11:09:20;;;;;;;5.35;3.05;;;35.20;53.30;37.90;97032.00;;;;5115684;28;20303;-68
2022/07/21 11:12:10;;;;;;;5.78;3.65;;;35.40;53.50;37.60;97029.00;;;;5117771;28;20287;-68
2022/07/21 11:14:59;;;;;;;4.35;2.60;;;35.50;51.50;38.20;97020.00;;;;5118205;28;20209;-68
2022/07/21 11:17:48;;;;;;;2.63;2.42;;;35.60;51.50;38.70;97021.00;;;;5116940;28;20222;-68
2022/07/21 11:20:38;;;;;;;5.57;3.25;;;35.80;52.90;38.00;97016.00;;;;5115283;28;20584;-68
2022/07/21 11:23:37;;;;;;;3.67;3.05;;;35.80;52.20;38.20;97015.00;;;;5114853;27;20201;-68
2022/07/21 11:26:26;;;;;;;5.10;2.65;;;35.90;51.00;38.00;97016.00;;;;5113602;28;20202;-69
2022/07/21 11:29:15;;;;;;;3.00;2.80;;;36.00;50.50;38.50;97016.00;;;;5120151;28;20209;-68
2022/07/21 11:32:06;;;;;;;4.18;2.72;;;36.10;50.70;38.80;97023.00;;;;5108492;28;20276;-69
2022/07/21 11:34:58;;;;;;;2.40;2.20;;;36.10;49.60;38.90;97014.00;;;;5109135;28;20209;-68
2022/07/21 11:37:48;;;;;;;3.00;2.22;;;36.20;49.60;39.10;97017.00;;;;5106854;28;20226;-67
2022/07/21 11:40:37;;;;;;;3.72;2.75;;;36.40;50.50;37.50;97011.00;;;;5110756;28;20230;-68
2022/07/21 11:43:41;;;;;;;5.00;2.78;;;36.30;50.20;37.90;97004.00;;;;5110179;28;20201;-68
2022/07/21 11:46:47;;;;;;;4.40;3.20;;;36.10;51.20;36.60;97002.00;;;;5113353;27;20198;-69
2022/07/21 11:49:36;;;;;;;4.38;2.80;;;36.00;49.40;37.50;97010.00;;;;5111345;28;20198;-69
2022/07/21 11:52:28;;;;;;;2.85;2.65;;;35.80;49.30;36.30;97000.00;;;;5110673;28;20202;-69
2022/07/21 11:55:18;;;;;;;4.55;2.80;;;35.50;49.20;37.10;97000.00;;;;5114271;27;20209;-68
2022/07/21 11:58:15;;;;;;;3.92;2.25;;;35.40;49.70;37.90;96990.00;;;;5120468;27;20217;-69
2022/07/21 12:01:08;;;;;;;4.47;2.47;;;35.50;49.90;38.70;97006.00;;;;5120264;27;20204;-68
2022/07/21 12:03:57;;;;;;;4.30;2.55;;;35.80;51.30;37.20;96997.00;;;;5113774;27;20794;-71
2022/07/21 12:06:46;;;;;;;2.92;2.72;;;36.00;49.10;35.40;96988.00;;;;5112926;27;20222;-68
2022/07/21 12:09:35;;;;;;;2.83;2.60;;;35.30;48.80;36.80;96983.00;;;;5110196;28;20197;-68
2022/07/21 12:12:38;;;;;;;3.00;2.50;;;35.20;49.50;39.00;96985.00;;;;5120262;27;20210;-69
2022/07/21 12:15:30;;;;;;;2.50;2.30;;;35.60;51.70;39.00;96978.00;;;;5110534;28;20198;-68
2022/07/21 12:18:36;;;;;;;3.45;2.60;;;35.90;50.00;39.30;96968.00;;;;5112752;27;20944;-69
2022/07/21 12:21:49;;;;;;;4.68;3.03;;;36.30;49.30;40.30;96966.00;;;;5111110;28;20202;-69
2022/07/21 12:24:57;;;;;;;9.05;2.50;;;36.80;50.30;41.00;96960.00;;;;5114381;27;20198;-68
2022/07/21 12:27:49;;;;;;;4.07;2.35;;;37.30;50.70;41.50;96956.00;;;;5111980;27;20218;-68
2022/07/21 12:30:44;;;;;;;2.75;2.55;;;37.80;49.90;41.70;96966.00;;;;5113847;27;20205;-68
2022/07/21 12:33:32;;;;;;;5.38;2.53;;;38.20;47.50;40.30;96960.00;;;;5120364;27;20239;-69
2022/07/21 12:36:22;;;;;;;4.50;2.60;;;38.20;45.60;40.30;96950.00;;;;5123567;27;20198;-69
2022/07/21 12:42:31;;;;;;;2.78;2.40;;;38.20;47.90;41.20;96949.00;;;;5108537;28;20202;-68
2022/07/21 12:45:22;;;;;;;3.17;2.85;;;38.50;48.40;40.30;96952.00;;;;5111219;27;20198;-69